Middlefield, Massachusetts
Current Conditions -  °F | °C
As of 7:54 AM on Thursday 30 Oct 2014 (Local Time) from KPSF Reporting Station
Scattered Clouds Scattered Clouds  
Wind Chill: 37°   Ceiling: Unl
Heat Index: 42°   Visibility: 10mi
Dew Point: 38°   Wind: 9mph
Humidity: 85%   Direction: 290°WNW
Pressure: 29.94"   Gusts: NA
Location:  42.35°N, 73.02°W
Report Text: KPSF 301154Z AUTO 29008KT 10SM FEW029 FEW038 SCT070 06/03 A2994 RMK AO2 SLP135 70021 T00560033 10067 20017 51013
Loading
Personal Weather Stations






























Interactive Weather Map
Tropical Storm Tracking
New forecast layout! Learn more

10-Day Weather Forecast

Advertisements
Track Severe Weather on mobile